Time;durP1;ratioP1;P1;durP2;ratioP2;P2;SDS_P1;SDS_P2;PMS_P1;PMS_P2;Temp;Humidity;BMP_temperature;BMP_pressure;BME280_temperature;BME280_humidity;BME280_pressure;Samples;Min_cycle;Max_cycle;Signal;HPM_P1;HPM_P2
2023/01/17 00:02:00;;;;;;;36.78;21.55;;;;;;;2.50;65.98;92585.72;4997758;28;20100;-78
2023/01/17 00:09:59;;;;;;;35.30;22.08;;;;;;;2.71;64.42;92581.63;4997840;28;20037;-78
2023/01/17 00:12:27;;;;;;;31.20;19.05;;;;;;;2.71;64.51;92591.34;4997074;28;20537;-79
2023/01/17 00:14:55;;;;;;;29.63;19.58;;;;;;;3.13;63.11;92587.59;4980914;28;20465;-79
2023/01/17 00:17:22;;;;;;;30.60;19.60;;;;;;;2.72;63.84;92572.69;4997714;28;20044;-80
2023/01/17 01:34:35;;;;;;;25.88;15.43;;;;;;;3.39;60.88;92559.66;4994419;28;20069;-78
2023/01/17 01:37:00;;;;;;;25.02;16.35;;;;;;;1.97;66.92;92538.19;4995771;28;20451;-78
2023/01/17 01:39:26;;;;;;;26.70;16.23;;;;;;;2.57;65.30;92561.72;4992490;28;20049;-78
2023/01/17 01:41:51;;;;;;;28.80;19.50;;;;;;;1.91;67.42;92534.88;4978506;28;20101;-78
2023/01/17 01:44:46;;;;;;;26.73;17.50;;;;;;;2.40;66.50;92528.22;4978899;28;20616;-78
2023/01/17 01:47:21;;;;;;;27.80;17.47;;;;;;;2.40;66.24;92536.84;4996929;28;20045;-79
2023/01/17 01:49:47;;;;;;;28.60;19.45;;;;;;;2.20;66.02;92500.53;4993805;28;20074;-79
2023/01/17 01:52:14;;;;;;;27.95;18.70;;;;;;;2.58;65.34;92534.41;4993944;28;20589;-78
2023/01/17 01:54:54;;;;;;;27.58;19.58;;;;;;;2.64;65.38;92522.75;4998383;28;20033;-78
2023/01/17 01:57:22;;;;;;;31.55;20.55;;;;;;;1.64;70.69;92527.75;4984380;28;20156;-77
2023/01/17 01:59:55;;;;;;;32.90;20.77;;;;;;;2.28;67.99;92531.31;5000931;28;20026;-79
2023/01/17 02:02:20;;;;;;;28.48;17.88;;;;;;;1.74;70.06;92526.00;5000378;28;20390;-78
2023/01/17 02:04:46;;;;;;;28.35;17.52;;;;;;;2.18;69.28;92509.75;4999564;28;20034;-78
2023/01/17 02:07:17;;;;;;;28.13;16.05;;;;;;;2.01;69.54;92510.34;4979356;28;20315;-79
2023/01/17 02:09:44;;;;;;;26.52;16.63;;;;;;;2.38;68.26;92531.13;4983558;28;20026;-78
2023/01/17 02:12:10;;;;;;;30.95;19.52;;;;;;;2.42;68.16;92513.72;4999513;28;20133;-78
2023/01/17 02:14:35;;;;;;;27.65;18.63;;;;;;;2.63;67.10;92529.06;4996588;28;20037;-79
2023/01/17 02:17:32;;;;;;;30.65;19.35;;;;;;;2.78;66.49;92529.50;5001342;28;20050;-78
2023/01/17 02:19:58;;;;;;;26.92;16.88;;;;;;;2.93;65.69;92531.81;4952100;28;20072;-79
2023/01/17 02:22:45;;;;;;;27.55;17.15;;;;;;;2.45;66.65;92512.38;5001047;28;20038;-79
2023/01/17 02:25:13;;;;;;;27.52;15.80;;;;;;;2.66;67.42;92541.56;5000313;28;20493;-79
2023/01/17 02:28:02;;;;;;;28.33;17.00;;;;;;;2.97;65.90;92553.00;4998278;28;20041;-79
2023/01/17 02:30:32;;;;;;;26.80;16.70;;;;;;;2.56;67.71;92512.91;4998894;28;20038;-78
2023/01/17 02:33:21;;;;;;;25.08;15.93;;;;;;;2.83;66.61;92518.13;4997603;28;20054;-79
2023/01/17 02:36:09;;;;;;;25.95;16.55;;;;;;;2.50;67.60;92489.41;4983605;28;20049;-79
2023/01/17 02:38:55;;;;;;;23.45;13.77;;;;;;;2.57;68.27;92478.50;4999485;28;20045;-77
2023/01/17 02:41:27;;;;;;;23.80;14.65;;;;;;;2.43;68.95;92489.03;4998629;28;20041;-78
2023/01/17 02:43:53;;;;;;;27.52;17.13;;;;;;;2.71;68.40;92528.34;4996061;28;20052;-79
2023/01/17 02:46:18;;;;;;;26.08;15.60;;;;;;;2.69;67.83;92488.50;4981532;28;20037;-78
2023/01/17 02:48:45;;;;;;;27.52;17.05;;;;;;;2.44;69.92;92508.97;5000082;28;20033;-80
2023/01/17 02:51:48;;;;;;;25.70;16.48;;;;;;;2.96;68.51;92519.94;4999457;28;20074;-79
2023/01/17 02:54:40;;;;;;;26.05;15.75;;;;;;;2.70;69.56;92511.81;4963717;28;20069;-77
2023/01/17 02:57:12;;;;;;;26.48;17.02;;;;;;;3.01;68.59;92511.94;4997874;28;20042;-78
2023/01/17 02:59:43;;;;;;;24.02;16.08;;;;;;;3.28;67.42;92506.56;4999811;28;20038;-78
2023/01/17 03:02:17;;;;;;;24.90;15.00;;;;;;;3.37;66.60;92507.41;4997204;28;20065;-79
2023/01/17 03:04:57;;;;;;;22.83;15.27;;;;;;;3.42;66.30;92501.25;4997532;28;20041;-79
2023/01/17 03:07:26;;;;;;;25.00;15.68;;;;;;;3.33;66.50;92516.94;4997127;28;20121;-78
2023/01/17 03:09:58;;;;;;;26.10;17.35;;;;;;;2.71;67.70;92467.97;4996224;28;20446;-79
2023/01/17 03:12:26;;;;;;;24.33;17.05;;;;;;;3.09;67.46;92495.47;5002827;28;20042;-78
2023/01/17 03:14:52;;;;;;;24.35;15.95;;;;;;;3.00;67.61;92463.09;5016897;28;20116;-79
2023/01/17 03:17:17;;;;;;;26.90;15.93;;;;;;;3.12;67.38;92465.19;5000749;28;20038;-78
2023/01/17 03:19:43;;;;;;;24.60;16.63;;;;;;;2.96;67.43;92447.16;4998994;28;20069;-78
2023/01/17 03:22:08;;;;;;;24.20;16.77;;;;;;;2.19;70.75;92466.72;4997865;28;20100;-79
2023/01/17 03:24:34;;;;;;;26.45;17.88;;;;;;;2.50;71.10;92486.78;4979090;28;20022;-78
2023/01/17 03:26:59;;;;;;;22.48;15.32;;;;;;;2.79;69.30;92477.78;4997586;28;20540;-78
2023/01/17 03:29:24;;;;;;;24.42;17.63;;;;;;;2.84;68.82;92472.41;4995613;28;20038;-79
2023/01/17 03:31:50;;;;;;;24.00;15.80;;;;;;;3.18;66.97;92477.94;4998901;28;20029;-79
2023/01/17 03:34:15;;;;;;;28.35;16.92;;;;;;;3.10;67.41;92483.88;4995657;28;20563;-78
2023/01/17 03:36:41;;;;;;;25.25;16.17;;;;;;;3.03;67.03;92495.88;4982123;28;20413;-79
2023/01/17 03:39:06;;;;;;;24.65;16.63;;;;;;;3.14;67.17;92490.09;4996212;28;20030;-79
2023/01/17 03:41:31;;;;;;;27.30;16.25;;;;;;;2.88;66.66;92465.50;4998143;28;20402;-78
2023/01/17 03:43:57;;;;;;;25.02;16.35;;;;;;;3.42;65.80;92495.22;4996802;28;20509;-79
2023/01/17 03:46:24;;;;;;;24.75;15.52;;;;;;;3.05;66.55;92491.88;4997291;28;20030;-78
2023/01/17 03:48:50;;;;;;;31.55;17.33;;;;;;;2.64;69.44;92491.25;4997845;28;20041;-80
2023/01/17 03:51:16;;;;;;;26.73;16.83;;;;;;;2.44;69.94;92503.72;4971249;28;20037;-79
2023/01/17 03:53:42;;;;;;;30.10;17.63;;;;;;;2.51;69.80;92458.69;4998814;28;20390;-79
2023/01/17 03:56:08;;;;;;;23.55;15.90;;;;;;;2.80;68.95;92455.69;4996514;28;20038;-79
2023/01/17 03:58:33;;;;;;;27.55;16.70;;;;;;;2.84;69.15;92481.06;4998029;28;20038;-78
2023/01/17 04:00:58;;;;;;;26.90;17.65;;;;;;;2.79;69.79;92483.03;4976905;28;20392;-79
2023/01/17 04:03:24;;;;;;;26.38;17.67;;;;;;;2.52;70.77;92468.91;4999102;28;20030;-78
2023/01/17 04:05:49;;;;;;;27.00;17.98;;;;;;;3.12;67.97;92487.00;4997706;28;20449;-80
2023/01/17 04:08:15;;;;;;;23.92;16.73;;;;;;;2.75;68.53;92474.19;4998025;28;20116;-79
2023/01/17 04:10:40;;;;;;;25.25;15.48;;;;;;;3.00;68.95;92523.50;4994964;28;20652;-78
2023/01/17 04:13:05;;;;;;;26.73;17.52;;;;;;;2.89;69.52;92519.56;4998684;28;20561;-79
2023/01/17 04:15:32;;;;;;;22.63;15.82;;;;;;;2.83;68.57;92474.28;4997154;28;20109;-79
2023/01/17 04:17:57;;;;;;;23.48;16.10;;;;;;;3.17;68.28;92518.41;4997383;28;20029;-78
2023/01/17 04:20:35;;;;;;;26.25;16.45;;;;;;;3.13;68.25;92503.53;4997495;28;20607;-78
2023/01/17 04:23:01;;;;;;;23.33;15.55;;;;;;;2.94;69.14;92537.81;4997839;28;20041;-78
2023/01/17 04:25:28;;;;;;;30.00;17.88;;;;;;;2.90;69.31;92510.59;4996932;28;20041;-79
2023/01/17 04:27:54;;;;;;;26.70;17.42;;;;;;;2.82;69.89;92506.06;4997368;28;20053;-78
2023/01/17 04:30:19;;;;;;;23.13;15.90;;;;;;;3.21;68.51;92506.22;4997996;28;20292;-78
2023/01/17 04:32:45;;;;;;;27.85;17.42;;;;;;;2.57;71.07;92499.50;4994264;28;20698;-79
2023/01/17 04:35:10;;;;;;;27.85;16.48;;;;;;;3.17;68.80;92521.03;4998443;28;20080;-79
2023/01/17 04:37:36;;;;;;;23.23;16.30;;;;;;;2.91;69.38;92512.16;4995460;28;20092;-78
2023/01/17 04:40:02;;;;;;;26.90;17.45;;;;;;;3.10;69.88;92541.66;4998762;28;20489;-79
2023/01/17 04:42:28;;;;;;;25.13;18.40;;;;;;;3.20;68.90;92520.41;4997435;28;20046;-79
2023/01/17 04:44:53;;;;;;;26.60;18.77;;;;;;;2.96;70.14;92514.69;4998229;28;20046;-78
2023/01/17 04:47:18;;;;;;;25.33;17.00;;;;;;;2.15;73.09;92478.88;4995811;28;20081;-78
2023/01/17 04:49:44;;;;;;;28.17;17.45;;;;;;;2.64;71.57;92509.63;4979519;28;20030;-78
2023/01/17 04:52:09;;;;;;;26.10;18.98;;;;;;;2.48;72.23;92507.31;4995119;28;20103;-78
2023/01/17 04:54:34;;;;;;;26.40;17.30;;;;;;;1.77;74.70;92512.31;4995141;28;20492;-79
2023/01/17 04:57:00;;;;;;;30.08;18.98;;;;;;;1.89;74.90;92512.66;4996414;28;20133;-80
2023/01/17 04:59:25;;;;;;;27.58;17.55;;;;;;;2.11;74.10;92546.09;4995433;28;20022;-77
2023/01/17 05:01:50;;;;;;;39.88;25.55;;;;;;;2.21;73.46;92562.41;4996781;28;20046;-79
2023/01/17 05:04:16;;;;;;;28.38;19.38;;;;;;;2.32;72.33;92537.53;4977939;28;20034;-78
2023/01/17 05:06:43;;;;;;;25.55;16.90;;;;;;;2.41;71.84;92535.78;4999190;28;20053;-79
2023/01/17 05:09:09;;;;;;;26.42;17.52;;;;;;;1.86;74.50;92528.94;4993442;28;20389;-78
2023/01/17 05:11:34;;;;;;;26.90;17.65;;;;;;;2.19;73.83;92559.31;4997481;28;20037;-78
2023/01/17 05:13:59;;;;;;;27.90;17.45;;;;;;;2.61;72.87;92579.22;4996428;28;20076;-79
2023/01/17 05:16:25;;;;;;;34.65;22.77;;;;;;;2.46;72.39;92561.91;4997550;28;20034;-78
2023/01/17 05:18:51;;;;;;;25.10;16.75;;;;;;;2.03;75.43;92571.91;4993742;28;20079;-78
2023/01/17 05:21:17;;;;;;;24.52;16.00;;;;;;;1.91;74.96;92568.22;4996470;28;20038;-78
2023/01/17 05:23:42;;;;;;;23.85;15.75;;;;;;;1.39;77.57;92543.09;4993936;28;20393;-79
2023/01/17 05:26:08;;;;;;;27.42;17.00;;;;;;;1.62;77.64;92540.34;4998251;28;20443;-77
2023/01/17 05:28:34;;;;;;;27.70;17.13;;;;;;;2.08;75.80;92534.34;4996908;28;20036;-78
2023/01/17 05:30:59;;;;;;;28.63;16.15;;;;;;;1.72;76.89;92525.53;4999541;28;20077;-79
2023/01/17 05:33:24;;;;;;;26.67;15.63;;;;;;;1.92;76.04;92504.22;4984230;28;20545;-78
2023/01/17 05:35:51;;;;;;;25.30;17.15;;;;;;;1.91;76.08;92544.63;5000589;28;20058;-80
2023/01/17 05:38:17;;;;;;;27.17;17.23;;;;;;;1.88;76.68;92542.56;4982183;28;20045;-78
2023/01/17 05:40:42;;;;;;;27.85;18.10;;;;;;;2.27;74.67;92519.28;4998615;28;20034;-80
2023/01/17 05:43:07;;;;;;;26.63;17.10;;;;;;;1.89;76.14;92512.66;4982668;28;20057;-78
2023/01/17 05:45:33;;;;;;;19.10;12.93;;;;;;;2.10;76.51;92508.59;4999914;28;20580;-78
2023/01/17 05:47:59;;;;;;;23.10;15.23;;;;;;;1.93;76.54;92488.19;4983277;28;20108;-78
2023/01/17 05:50:27;;;;;;;21.35;16.02;;;;;;;1.90;77.63;92522.88;4982941;28;20081;-78
2023/01/17 05:52:55;;;;;;;5.45;2.72;;;;;;;2.37;79.23;92497.31;5000322;28;20038;-79
2023/01/17 05:55:22;;;;;;;3.38;1.80;;;;;;;3.00;78.82;92489.38;4997937;28;20681;-79
2023/01/17 05:57:48;;;;;;;5.90;4.57;;;;;;;3.00;78.28;92467.56;4998254;28;20173;-78
2023/01/17 06:00:15;;;;;;;1.58;1.48;;;;;;;3.31;77.25;92435.03;4999672;28;20360;-79
2023/01/17 06:02:41;;;;;;;4.00;3.45;;;;;;;3.59;75.83;92411.97;4981582;28;20503;-78
2023/01/17 06:05:07;;;;;;;2.15;1.40;;;;;;;4.23;73.72;92442.03;5001282;28;20045;-80
2023/01/17 06:07:33;;;;;;;3.20;2.65;;;;;;;4.53;72.39;92465.97;4999786;28;20053;-78
2023/01/17 06:09:58;;;;;;;14.18;9.02;;;;;;;4.26;70.31;92483.53;5000701;28;20697;-78
2023/01/17 06:12:24;;;;;;;10.35;7.70;;;;;;;4.40;70.92;92475.56;4979744;28;20025;-78
2023/01/17 06:14:49;;;;;;;9.73;7.15;;;;;;;3.94;71.44;92448.91;4999537;28;20092;-78
2023/01/17 06:17:15;;;;;;;2.03;1.80;;;;;;;4.53;71.33;92434.38;5000150;28;20620;-78
2023/01/17 06:19:40;;;;;;;16.02;11.18;;;;;;;4.30;68.99;92467.94;4997354;28;20033;-78
2023/01/17 06:22:05;;;;;;;9.60;6.57;;;;;;;4.16;71.82;92433.81;4981480;28;20030;-78
2023/01/17 06:24:32;;;;;;;3.17;2.70;;;;;;;4.51;71.10;92426.00;5000602;28;20532;-78
2023/01/17 06:26:58;;;;;;;3.28;1.90;;;;;;;4.85;70.29;92431.28;4999351;28;20072;-79
2023/01/17 06:29:23;;;;;;;2.13;1.48;;;;;;;5.32;68.28;92444.59;4999646;28;20525;-78
2023/01/17 06:31:49;;;;;;;1.42;1.27;;;;;;;5.59;66.90;92454.75;4999185;28;20493;-78
2023/01/17 06:34:14;;;;;;;1.65;1.10;;;;;;;5.72;64.91;92430.06;5003797;28;20041;-79
2023/01/17 06:36:39;;;;;;;5.10;1.40;;;;;;;6.04;64.42;92443.75;4981977;28;20501;-78
2023/01/17 06:39:05;;;;;;;1.63;1.10;;;;;;;6.19;63.98;92469.63;4997644;28;20137;-79
2023/01/17 06:41:30;;;;;;;1.75;1.30;;;;;;;6.28;62.67;92470.38;4975505;28;20030;-78
2023/01/17 06:43:56;;;;;;;2.33;1.23;;;;;;;6.16;62.28;92425.41;4997554;28;20030;-78
2023/01/17 06:46:24;;;;;;;1.30;1.20;;;;;;;6.60;62.05;92498.03;4997065;28;20046;-78
2023/01/17 06:48:50;;;;;;;1.52;1.17;;;;;;;6.41;62.05;92461.44;4999373;28;20033;-78
2023/01/17 06:51:15;;;;;;;1.50;1.38;;;;;;;6.63;61.52;92478.88;4995406;28;20062;-79
2023/01/17 06:53:40;;;;;;;2.00;1.40;;;;;;;6.62;61.74;92475.47;4998021;28;20042;-78
2023/01/17 06:56:07;;;;;;;2.85;1.02;;;;;;;6.86;60.46;92480.91;4996898;28;20042;-80
2023/01/17 06:58:32;;;;;;;1.40;1.30;;;;;;;6.98;60.09;92498.72;4997992;28;20463;-79
2023/01/17 07:00:58;;;;;;;2.30;1.52;;;;;;;6.97;60.10;92491.09;4995435;28;20470;-78
2023/01/17 07:03:25;;;;;;;3.92;2.25;;;;;;;7.04;59.76;92502.72;4997408;28;20492;-79
2023/01/17 07:05:52;;;;;;;1.92;1.20;;;;;;;6.92;59.33;92486.00;4978329;28;20050;-78
2023/01/17 07:08:19;;;;;;;2.47;1.40;;;;;;;7.10;59.92;92517.25;4997516;28;20042;-80
2023/01/17 07:10:46;;;;;;;3.63;1.42;;;;;;;6.78;60.04;92499.47;4999793;28;20517;-79
2023/01/17 07:13:12;;;;;;;3.88;1.65;;;;;;;7.15;58.98;92505.72;4998543;28;20033;-79
2023/01/17 07:15:38;;;;;;;2.53;1.30;;;;;;;7.24;58.35;92490.56;5000772;28;20079;-78
2023/01/17 07:18:04;;;;;;;1.30;1.20;;;;;;;7.31;58.55;92496.13;4998928;28;20529;-79
2023/01/17 07:20:30;;;;;;;1.00;1.00;;;;;;;7.24;58.32;92483.41;4999802;28;20099;-78
2023/01/17 07:22:55;;;;;;;2.70;1.30;;;;;;;7.40;57.70;92478.31;4996317;28;20038;-79
2023/01/17 07:25:21;;;;;;;1.20;1.10;;;;;;;7.43;57.57;92474.25;5000946;28;20121;-79
2023/01/17 07:27:47;;;;;;;1.33;1.23;;;;;;;7.57;57.16;92501.19;4999620;28;20060;-80
2023/01/17 07:30:13;;;;;;;1.23;1.10;;;;;;;7.28;58.66;92459.75;4999427;28;20121;-79
2023/01/17 07:32:38;;;;;;;1.40;1.30;;;;;;;7.58;58.48;92484.22;4995439;28;20632;-80
2023/01/17 07:35:05;;;;;;;1.85;1.35;;;;;;;7.45;59.40;92512.47;4996111;28;20030;-79
2023/01/17 07:37:30;;;;;;;3.30;1.40;;;;;;;7.40;59.19;92482.81;4986890;28;20041;-77
2023/01/17 07:39:56;;;;;;;3.85;1.40;;;;;;;7.22;58.56;92474.25;4994195;28;20084;-78
2023/01/17 07:42:21;;;;;;;3.50;1.50;;;;;;;7.31;58.64;92482.88;4977298;28;20032;-78
2023/01/17 07:44:47;;;;;;;2.45;1.30;;;;;;;7.47;58.25;92493.66;4996206;28;20510;-78
2023/01/17 07:47:12;;;;;;;1.33;1.17;;;;;;;7.54;58.33;92494.66;4995512;28;20409;-79
2023/01/17 07:49:38;;;;;;;3.55;1.25;;;;;;;7.68;57.47;92494.38;4996781;28;20630;-80
2023/01/17 07:52:06;;;;;;;1.60;1.40;;;;;;;7.68;58.01;92504.94;4999199;28;20038;-79
2023/01/17 07:54:31;;;;;;;2.05;1.33;;;;;;;7.64;57.04;92494.25;4996271;28;20285;-79
2023/01/17 07:56:57;;;;;;;2.00;1.30;;;;;;;7.66;57.12;92500.00;4994795;28;20465;-79
2023/01/17 07:59:22;;;;;;;1.30;1.20;;;;;;;7.86;56.47;92485.22;4990932;28;20034;-80
2023/01/17 08:01:47;;;;;;;1.55;1.40;;;;;;;7.99;55.62;92509.81;4991891;28;20391;-78
2023/01/17 08:04:13;;;;;;;1.83;1.52;;;;;;;8.06;54.98;92502.13;4989124;28;20056;-78
2023/01/17 08:06:42;;;;;;;6.20;1.52;;;;;;;7.91;55.28;92492.16;4994382;28;20286;-78
2023/01/17 08:09:08;;;;;;;2.17;1.45;;;;;;;7.96;55.18;92491.97;4992668;28;20384;-79
2023/01/17 08:11:33;;;;;;;2.80;1.17;;;;;;;8.15;54.72;92503.56;4975893;28;20041;-79
2023/01/17 08:13:59;;;;;;;2.92;1.27;;;;;;;8.34;54.44;92523.47;4967485;28;20038;-80
2023/01/17 08:16:25;;;;;;;5.05;2.92;;;;;;;8.22;54.62;92523.47;4992013;28;20213;-80
2023/01/17 08:18:51;;;;;;;3.38;1.33;;;;;;;8.32;53.45;92494.63;4994749;28;20381;-79
2023/01/17 08:21:17;;;;;;;1.73;1.55;;;;;;;8.39;54.41;92517.94;4970679;28;20033;-79
2023/01/17 08:23:46;;;;;;;2.58;1.33;;;;;;;8.42;54.28;92517.28;4992668;28;20034;-79
2023/01/17 08:26:17;;;;;;;1.85;1.65;;;;;;;8.61;54.38;92535.31;4986660;28;20785;-80
2023/01/17 08:28:42;;;;;;;2.55;1.30;;;;;;;8.64;53.39;92542.59;4995174;28;20037;-79
2023/01/17 08:31:08;;;;;;;2.67;1.27;;;;;;;8.63;53.24;92549.75;4991996;28;20568;-79
2023/01/17 08:33:35;;;;;;;1.58;1.10;;;;;;;8.53;53.00;92502.50;4989474;28;20057;-78
2023/01/17 08:36:00;;;;;;;3.35;2.17;;;;;;;8.66;53.66;92543.03;4985074;28;20514;-79
2023/01/17 08:38:26;;;;;;;1.45;1.27;;;;;;;8.82;52.69;92552.63;4968367;28;20052;-80
2023/01/17 08:40:51;;;;;;;1.60;1.20;;;;;;;8.32;53.24;92502.59;4970376;28;20636;-79
2023/01/17 08:43:16;;;;;;;2.20;1.55;;;;;;;8.64;53.73;92567.22;4970507;28;20119;-80
2023/01/17 08:45:47;;;;;;;3.03;1.40;;;;;;;8.81;53.37;92550.31;4987400;28;20490;-79
2023/01/17 08:48:12;;;;;;;2.50;1.35;;;;;;;8.66;54.03;92549.09;4983841;28;20588;-78
2023/01/17 08:50:38;;;;;;;1.80;1.50;;;;;;;8.70;53.52;92528.00;4989338;28;20077;-79
2023/01/17 08:53:03;;;;;;;3.10;1.63;;;;;;;8.64;53.63;92529.31;4990710;28;20045;-78
2023/01/17 08:55:29;;;;;;;2.30;1.17;;;;;;;8.74;53.36;92529.66;4994487;28;20080;-80
2023/01/17 08:57:55;;;;;;;2.05;1.65;;;;;;;8.89;53.58;92544.13;4990947;28;20182;-80
2023/01/17 09:00:21;;;;;;;1.92;1.35;;;;;;;8.90;53.18;92535.06;4992120;28;20049;-79
2023/01/17 09:02:46;;;;;;;4.93;1.83;;;;;;;8.86;52.67;92479.28;4993226;28;20056;-81
2023/01/17 09:05:12;;;;;;;2.05;1.75;;;;;;;8.74;52.23;92503.16;4991866;28;20406;-79
2023/01/17 09:07:37;;;;;;;3.20;1.50;;;;;;;8.72;52.64;92515.19;4968464;28;20508;-80
2023/01/17 09:10:03;;;;;;;3.00;1.33;;;;;;;8.82;52.73;92496.19;4991389;28;20040;-81
2023/01/17 09:12:32;;;;;;;1.65;1.33;;;;;;;8.79;51.86;92488.91;4993399;28;20034;-80
2023/01/17 09:14:57;;;;;;;3.67;1.20;;;;;;;9.05;52.17;92523.75;4989114;28;20038;-79
2023/01/17 09:17:23;;;;;;;1.33;1.23;;;;;;;9.06;51.32;92492.72;4986994;28;20944;-79
2023/01/17 09:19:48;;;;;;;2.28;1.55;;;;;;;9.26;50.95;92513.81;4990177;28;20057;-80
2023/01/17 09:22:13;;;;;;;2.03;1.30;;;;;;;9.15;51.66;92502.13;4972662;28;20037;-80
2023/01/17 09:24:39;;;;;;;1.90;1.52;;;;;;;9.03;51.12;92500.25;4992418;28;20528;-80
2023/01/17 09:27:05;;;;;;;3.08;1.98;;;;;;;9.07;51.35;92503.00;4991196;28;20500;-79
2023/01/17 09:29:31;;;;;;;1.73;1.40;;;;;;;9.08;51.48;92511.72;4974992;28;20030;-80
2023/01/17 09:31:56;;;;;;;2.42;1.40;;;;;;;8.78;52.07;92464.28;4989382;28;20830;-79
2023/01/17 09:34:23;;;;;;;3.97;1.35;;;;;;;8.94;52.11;92490.88;4972885;28;20042;-80
2023/01/17 09:36:49;;;;;;;1.98;1.50;;;;;;;9.15;51.97;92483.56;4989378;28;20072;-81
2023/01/17 09:39:14;;;;;;;2.20;1.90;;;;;;;8.90;52.07;92394.56;4992346;28;20104;-80
2023/01/17 09:41:50;;;;;;;1.27;1.15;;;;;;;9.16;52.21;92461.22;4991518;28;20553;-79
2023/01/17 09:44:30;;;;;;;3.72;1.27;;;;;;;9.12;52.05;92436.50;4991495;28;20080;-79
2023/01/17 09:47:03;;;;;;;2.50;1.27;;;;;;;9.14;51.61;92462.69;4989660;28;20372;-79
2023/01/17 09:49:42;;;;;;;2.17;1.48;;;;;;;8.74;51.64;92436.91;4990531;28;20038;-79
2023/01/17 09:52:12;;;;;;;1.20;1.10;;;;;;;9.20;51.06;92464.75;4991684;28;20033;-79
2023/01/17 09:54:40;;;;;;;2.38;1.40;;;;;;;9.32;51.35;92479.88;4987265;28;20032;-81
2023/01/17 09:57:30;;;;;;;1.77;1.52;;;;;;;9.30;51.47;92469.59;4988395;28;20481;-80
2023/01/17 10:00:08;;;;;;;1.70;1.13;;;;;;;9.48;50.76;92506.47;4989497;28;20601;-79
2023/01/17 10:03:04;;;;;;;3.13;1.90;;;;;;;9.47;50.30;92473.06;4989979;28;20049;-79
2023/01/17 10:06:21;;;;;;;1.50;1.40;;;;;;;9.41;50.09;92499.06;4991609;28;20121;-80
2023/01/17 10:08:49;;;;;;;5.43;1.50;;;;;;;9.18;51.38;92495.38;4954795;28;20042;-80
2023/01/17 10:11:29;;;;;;;2.67;1.42;;;;;;;9.20;50.93;92491.28;4990995;28;20038;-80
2023/01/17 10:14:13;;;;;;;2.38;1.75;;;;;;;8.80;51.98;92466.59;4962803;28;20046;-80
2023/01/17 10:16:59;;;;;;;5.38;2.10;;;;;;;9.01;52.25;92499.81;4990803;28;20044;-80
2023/01/17 10:19:34;;;;;;;4.60;2.60;;;;;;;9.23;52.15;92498.56;4995486;28;20441;-80
2023/01/17 10:22:33;;;;;;;1.63;1.50;;;;;;;9.51;50.52;92503.91;4978121;28;20033;-80
2023/01/17 10:25:20;;;;;;;2.42;1.80;;;;;;;8.83;52.02;92514.41;4996219;28;20096;-80
2023/01/17 10:28:03;;;;;;;1.40;1.30;;;;;;;8.87;53.51;92493.31;4969283;28;20481;-80
2023/01/17 10:30:33;;;;;;;6.25;2.15;;;;;;;8.78;52.57;92503.25;4993067;28;20054;-78
2023/01/17 10:33:05;;;;;;;3.30;1.58;;;;;;;8.69;53.53;92537.06;4994295;28;20038;-81
2023/01/17 10:35:35;;;;;;;4.60;1.63;;;;;;;8.69;53.42;92516.63;4993726;28;20540;-79
2023/01/17 10:38:09;;;;;;;1.92;1.30;;;;;;;8.94;53.08;92526.13;4963927;28;20050;-80
2023/01/17 10:40:53;;;;;;;3.03;1.35;;;;;;;9.23;51.24;92497.81;4986510;28;20627;-80
2023/01/17 10:43:26;;;;;;;2.03;1.23;;;;;;;8.93;51.70;92499.94;4992549;28;20060;-80
2023/01/17 10:45:54;;;;;;;2.22;1.60;;;;;;;9.13;52.83;92525.56;4972733;28;20026;-80
2023/01/17 10:48:35;;;;;;;1.55;1.30;;;;;;;9.10;51.45;92520.88;4969232;28;20077;-79
2023/01/17 10:51:11;;;;;;;1.83;1.50;;;;;;;9.33;51.34;92524.66;4991758;28;20116;-80
2023/01/17 10:53:46;;;;;;;3.80;1.42;;;;;;;9.08;51.25;92498.47;4995019;28;20065;-81
2023/01/17 10:56:15;;;;;;;3.85;2.00;;;;;;;9.35;51.51;92522.41;4993383;28;20037;-79
2023/01/17 10:58:40;;;;;;;2.25;1.73;;;;;;;9.31;50.64;92516.22;4994443;28;20572;-79
2023/01/17 11:01:18;;;;;;;1.63;1.52;;;;;;;9.19;50.68;92475.72;4972547;28;20169;-81
2023/01/17 11:03:49;;;;;;;2.13;1.50;;;;;;;9.14;50.89;92484.69;4974811;28;20026;-79
2023/01/17 11:06:21;;;;;;;2.05;1.50;;;;;;;9.01;51.39;92494.50;4992828;28;20383;-80
2023/01/17 11:08:56;;;;;;;1.40;1.30;;;;;;;9.00;51.46;92511.50;4977931;28;20143;-80
2023/01/17 11:11:31;;;;;;;3.50;1.67;;;;;;;9.10;52.26;92482.97;4994076;28;20502;-81
2023/01/17 11:14:04;;;;;;;2.50;1.43;;;;;;;9.21;50.75;92498.13;4993492;28;20041;-80
2023/01/17 11:16:31;;;;;;;2.75;1.50;;;;;;;8.94;50.52;92469.66;4970438;28;20058;-80
2023/01/17 11:19:20;;;;;;;1.52;1.42;;;;;;;9.11;50.90;92469.41;4974775;28;20025;-80
2023/01/17 11:21:57;;;;;;;2.45;1.48;;;;;;;9.20;51.54;92480.66;4977523;28;20565;-80
2023/01/17 11:24:46;;;;;;;3.97;1.90;;;;;;;9.15;50.92;92459.69;4994240;28;20042;-81
2023/01/17 11:27:26;;;;;;;5.38;1.38;;;;;;;9.43;49.92;92465.03;4998283;28;20039;-80
2023/01/17 11:30:03;;;;;;;1.50;1.30;;;;;;;9.30;50.26;92439.63;4996301;28;20045;-80
2023/01/17 11:32:33;;;;;;;2.03;1.38;;;;;;;9.52;50.80;92463.00;4972395;28;20034;-80
2023/01/17 11:35:16;;;;;;;3.17;2.08;;;;;;;9.79;49.19;92469.38;4995710;28;20104;-80
2023/01/17 11:38:03;;;;;;;1.60;1.38;;;;;;;9.48;49.58;92451.50;4995229;28;20402;-79
2023/01/17 11:40:38;;;;;;;4.75;1.85;;;;;;;9.06;50.19;92429.84;4976276;28;21033;-80
2023/01/17 11:43:09;;;;;;;2.67;1.10;;;;;;;9.17;49.68;92425.66;4994456;28;20038;-79
2023/01/17 11:45:35;;;;;;;3.85;1.48;;;;;;;9.05;50.00;92433.59;4995939;28;20423;-80
2023/01/17 11:48:07;;;;;;;4.07;1.48;;;;;;;9.10;50.69;92404.19;4995693;28;20046;-79
2023/01/17 11:50:36;;;;;;;1.13;1.00;;;;;;;9.12;50.05;92423.22;4995304;28;20125;-80
2023/01/17 11:53:22;;;;;;;2.05;1.25;;;;;;;9.27;49.98;92414.56;4994715;28;20044;-80
2023/01/17 11:56:26;;;;;;;2.03;1.45;;;;;;;9.24;49.58;92404.59;4996143;28;20045;-79
2023/01/17 11:59:17;;;;;;;2.85;1.50;;;;;;;9.25;50.02;92400.84;4996257;28;20042;-79
2023/01/17 12:02:03;;;;;;;3.20;1.40;;;;;;;8.84;49.76;92348.19;4997489;28;20046;-79
2023/01/17 12:04:35;;;;;;;2.63;1.10;;;;;;;8.96;49.53;92403.81;4971607;28;20180;-79
2023/01/17 12:07:39;;;;;;;4.65;1.20;;;;;;;9.03;49.49;92398.72;4995903;28;20536;-79
2023/01/17 12:10:20;;;;;;;1.60;1.30;;;;;;;8.86;49.80;92372.47;4960642;28;20409;-79
2023/01/17 12:16:31;;;;;;;6.13;1.80;;;;;;;9.14;49.80;92418.38;4915360;29;20059;-79
2023/01/17 12:19:31;;;;;;;8.05;2.53;;;;;;;8.98;50.24;92377.72;4914707;29;20035;-81
2023/01/17 12:22:22;;;;;;;3.33;1.30;;;;;;;8.99;49.97;92384.59;4985862;28;20056;-80
2023/01/17 12:24:51;;;;;;;3.33;1.40;;;;;;;8.94;49.74;92363.63;4972770;28;20030;-80
2023/01/17 12:27:55;;;;;;;2.20;1.75;;;;;;;9.48;49.49;92360.50;4995861;28;20132;-81
2023/01/17 12:30:41;;;;;;;1.35;1.23;;;;;;;9.61;47.76;92391.19;4984280;28;20413;-80
2023/01/17 12:33:20;;;;;;;4.53;1.70;;;;;;;9.39;48.45;92363.31;4978280;28;20049;-79
2023/01/17 12:35:54;;;;;;;3.20;1.65;;;;;;;9.05;48.53;92327.53;4997499;28;20580;-80
2023/01/17 12:38:30;;;;;;;2.25;1.23;;;;;;;9.28;48.41;92368.34;4995925;28;20455;-81
2023/01/17 12:41:30;;;;;;;3.00;1.90;;;;;;;9.62;47.82;92363.53;4975619;28;20136;-79
2023/01/17 12:43:59;;;;;;;1.45;1.20;;;;;;;9.77;47.73;92378.69;4992047;28;20569;-80
2023/01/17 12:46:30;;;;;;;4.10;2.70;;;;;;;9.43;48.25;92380.88;4995058;28;20038;-79
2023/01/17 12:49:35;;;;;;;6.00;2.08;;;;;;;9.55;49.10;92379.25;4995787;28;20113;-80
2023/01/17 12:52:26;;;;;;;3.63;1.67;;;;;;;9.45;48.39;92362.72;4997874;28;20038;-79
2023/01/17 12:55:01;;;;;;;8.27;1.90;;;;;;;9.47;48.02;92321.81;4969498;28;20414;-79
2023/01/17 12:57:44;;;;;;;6.05;1.65;;;;;;;9.50;47.73;92359.06;4998742;28;20123;-79
2023/01/17 13:00:18;;;;;;;1.48;1.35;;;;;;;9.57;47.33;92334.59;4993141;28;20136;-80
2023/01/17 13:03:16;;;;;;;1.20;1.10;;;;;;;9.97;46.69;92361.75;4994319;28;20038;-80
2023/01/17 13:05:45;;;;;;;1.90;1.52;;;;;;;10.12;45.92;92347.66;4994992;28;20561;-80
2023/01/17 13:08:41;;;;;;;3.50;1.30;;;;;;;10.64;45.82;92373.91;4995878;28;20042;-79
2023/01/17 13:11:28;;;;;;;;;;;;;;;10.44;45.15;92368.91;4996184;28;20209;-80
2023/01/17 13:13:56;;;;;;;3.35;1.30;;;;;;;9.76;46.45;92355.91;4996702;28;19992;-81
2023/01/17 13:16:37;;;;;;;2.47;1.25;;;;;;;9.54;47.02;92337.91;4995443;28;20429;-80
2023/01/17 13:19:11;;;;;;;2.35;1.40;;;;;;;9.73;47.25;92372.53;4996114;28;20029;-80